Shemah Yisrael!
Hear, O Israel: the LORD our God, the LORD is one.
You shall love the LORD your God with all your heart and with all your soul and with all your might.
(Deuteronomy 6:4-5)
Houston / Ellington, TX, United States (KEFD) 29-36N 095-10W
Sep 20, 2017 - 05:50 AM EDT / 2017.09.20 0950 UTC
Wind: from the SSE (150 degrees) at 3 MPH (3 KT):0
Visibility: 10 mile(s):0
Sky conditions: partly cloudy
Temperature: 78 F (26 C)
Dew Point: 77 F (25 C)
Relative Humidity: 94%
Pressure (altimeter): 29.91 in. Hg (1012 hPa)
ob: KEFD 200950Z 15003KT 10SM FEW012 SCT250 26/25 A2991
cycle: 10
w e b m a s t e r   a t   s h e m a h   d o t   n e t